Time;durP1;ratioP1;P1;durP2;ratioP2;P2;SDS_P1;SDS_P2;PMS_P1;PMS_P2;Temp;Humidity;BMP_temperature;BMP_pressure;BME280_temperature;BME280_humidity;BME280_pressure;Samples;Min_cycle;Max_cycle;Signal;HPM_P1;HPM_P2
2022/01/31 00:00:10;;;;;;;3.67;1.33;;;;;;;5.80;100.00;99880.94;5115518;28;20047;-89
2022/01/31 00:02:37;;;;;;;4.93;1.10;;;;;;;5.79;100.00;99894.84;5107131;28;20043;-89
2022/01/31 00:05:05;;;;;;;2.47;1.10;;;;;;;6.05;100.00;99870.63;5105148;27;20071;-90
2022/01/31 00:07:32;;;;;;;4.70;1.20;;;;;;;5.95;100.00;99870.97;5136991;27;20043;-88
2022/01/31 00:09:59;;;;;;;5.25;1.08;;;;;;;5.89;100.00;99846.88;5115107;28;20044;-89
2022/01/31 00:12:30;;;;;;;6.88;1.30;;;;;;;6.01;100.00;99876.00;5133167;27;20076;-89
2022/01/31 00:15:02;;;;;;;8.32;1.17;;;;;;;5.76;100.00;99845.59;5119249;27;20093;-89
2022/01/31 00:17:29;;;;;;;5.93;1.23;;;;;;;5.99;100.00;99839.66;5118227;27;20043;-89
2022/01/31 00:19:55;;;;;;;4.30;1.55;;;;;;;6.32;100.00;99859.38;5136713;27;20086;-90
2022/01/31 00:22:22;;;;;;;9.27;1.50;;;;;;;6.13;100.00;99799.38;5117421;27;20039;-91
2022/01/31 00:24:49;;;;;;;5.90;1.48;;;;;;;5.94;100.00;99812.94;5136063;27;20055;-90
2022/01/31 00:27:16;;;;;;;5.65;1.23;;;;;;;5.95;100.00;99830.25;5136465;27;20078;-90
2022/01/31 00:29:43;;;;;;;4.28;1.10;;;;;;;5.90;100.00;99811.38;5118921;27;20054;-90
2022/01/31 00:32:10;;;;;;;6.05;1.20;;;;;;;5.82;100.00;99821.16;5134029;27;20054;-88
2022/01/31 00:34:37;;;;;;;7.88;1.25;;;;;;;6.20;100.00;99819.06;5098439;28;20134;-90
2022/01/31 00:37:04;;;;;;;4.93;1.80;;;;;;;6.33;100.00;99856.72;5097391;28;20493;-91
2022/01/31 00:39:34;;;;;;;3.95;1.25;;;;;;;6.27;100.00;99857.78;5117529;27;20047;-89
2022/01/31 00:42:03;;;;;;;3.33;1.20;;;;;;;6.38;100.00;99877.38;5117177;27;20043;-89
2022/01/31 00:47:31;;;;;;;4.15;1.10;;;;;;;5.87;100.00;99877.25;5111850;27;20051;-91
2022/01/31 00:50:09;;;;;;;4.15;1.40;;;;;;;5.82;100.00;99901.69;5117631;27;20116;-92
2022/01/31 00:52:38;;;;;;;2.55;1.05;;;;;;;5.60;100.00;99943.06;5123223;27;20122;-92
2022/01/31 00:55:07;;;;;;;2.28;1.85;;;;;;;5.54;100.00;99946.66;5116339;27;20054;-89
2022/01/31 00:57:34;;;;;;;6.57;1.17;;;;;;;5.63;100.00;99941.22;5117623;27;20088;-90
2022/01/31 01:00:01;;;;;;;5.35;1.30;;;;;;;5.54;100.00;99953.63;5135950;27;20051;-89
2022/01/31 01:02:30;;;;;;;5.75;1.30;;;;;;;5.42;100.00;99976.44;5124642;27;20465;-92
2022/01/31 01:04:57;;;;;;;3.17;1.13;;;;;;;6.11;100.00;99983.97;5118325;27;20529;-90
2022/01/31 01:07:23;;;;;;;7.00;1.45;;;;;;;5.86;100.00;100015.00;5136199;27;20047;-91
2022/01/31 01:09:50;;;;;;;3.42;1.20;;;;;;;6.16;100.00;100022.78;5135401;27;20047;-90
2022/01/31 01:12:18;;;;;;;5.47;1.50;;;;;;;6.19;100.00;100049.53;5117074;27;20046;-90
2022/01/31 01:14:46;;;;;;;8.02;1.17;;;;;;;6.03;100.00;100033.56;5117340;27;20043;-91
2022/01/31 01:17:13;;;;;;;5.18;1.30;;;;;;;6.21;100.00;100032.16;5136021;27;20083;-89
2022/01/31 01:19:40;;;;;;;6.07;1.40;;;;;;;5.95;100.00;100032.94;5135960;27;20122;-90
2022/01/31 01:22:07;;;;;;;3.72;1.52;;;;;;;5.86;100.00;100054.84;5120178;27;20434;-91
2022/01/31 01:24:34;;;;;;;6.40;1.40;;;;;;;5.87;100.00;100068.66;5114113;27;20101;-91
2022/01/31 01:27:01;;;;;;;3.10;1.20;;;;;;;6.00;100.00;100098.66;5116142;27;20396;-91
2022/01/31 01:29:28;;;;;;;9.85;2.08;;;;;;;6.01;100.00;100096.88;5097129;28;20048;-92
2022/01/31 01:31:56;;;;;;;8.30;1.50;;;;;;;6.04;100.00;100113.25;5111939;27;20047;-90
2022/01/31 01:34:23;;;;;;;5.40;1.40;;;;;;;6.08;100.00;100093.22;5117330;27;20058;-91
2022/01/31 01:36:53;;;;;;;4.75;1.20;;;;;;;6.07;100.00;100109.69;5117608;27;20043;-91
2022/01/31 01:39:20;;;;;;;5.82;1.42;;;;;;;5.88;100.00;100111.97;5136589;27;20047;-91
2022/01/31 01:41:47;;;;;;;10.07;1.95;;;;;;;5.63;100.00;100115.22;5116756;27;20050;-92
2022/01/31 01:44:14;;;;;;;5.40;1.50;;;;;;;6.19;100.00;100169.13;5116920;27;20047;-89
2022/01/31 01:46:41;;;;;;;6.65;1.30;;;;;;;6.14;100.00;100170.16;5116282;27;20051;-89
2022/01/31 01:49:08;;;;;;;7.68;1.20;;;;;;;5.78;100.00;100165.06;5135161;27;20047;-91
2022/01/31 01:51:37;;;;;;;3.40;1.45;;;;;;;5.77;100.00;100168.53;5116651;27;20050;-91
2022/01/31 01:54:04;;;;;;;6.47;1.35;;;;;;;5.54;100.00;100197.72;5114010;28;20055;-89
2022/01/31 01:56:31;;;;;;;5.05;1.75;;;;;;;5.58;100.00;100175.94;5145318;27;20050;-91
2022/01/31 01:59:04;;;;;;;6.63;1.45;;;;;;;5.52;100.00;100213.31;5122088;27;20047;-91
2022/01/31 02:01:31;;;;;;;8.32;1.70;;;;;;;5.66;100.00;100193.03;5130461;27;20043;-92
2022/01/31 02:03:58;;;;;;;13.20;3.00;;;;;;;5.26;100.00;100207.03;5117420;27;20047;-92
2022/01/31 02:06:25;;;;;;;11.45;2.38;;;;;;;5.93;100.00;100231.34;5116915;27;20047;-91
2022/01/31 02:08:52;;;;;;;7.10;2.40;;;;;;;5.58;100.00;100246.94;5134843;27;20134;-92
2022/01/31 02:11:20;;;;;;;9.90;2.10;;;;;;;5.73;100.00;100231.88;5112919;28;20050;-90
2022/01/31 02:13:47;;;;;;;10.15;2.30;;;;;;;5.65;100.00;100255.44;5116685;27;20050;-90
2022/01/31 02:16:17;;;;;;;12.18;2.35;;;;;;;5.76;100.00;100271.59;5133904;27;20051;-90
2022/01/31 02:18:49;;;;;;;8.75;2.10;;;;;;;6.05;100.00;100241.44;5113386;28;20058;-89
2022/01/31 02:21:17;;;;;;;12.35;2.67;;;;;;;5.71;100.00;100294.25;5108201;28;20131;-89
2022/01/31 02:23:43;;;;;;;19.98;3.13;;;;;;;5.81;100.00;100292.28;5119714;27;20774;-90
2022/01/31 02:26:10;;;;;;;25.98;3.20;;;;;;;5.89;100.00;100304.16;5117078;27;20499;-90
2022/01/31 02:28:39;;;;;;;19.75;3.17;;;;;;;5.58;100.00;100321.38;5135338;27;20400;-90
2022/01/31 02:31:06;;;;;;;16.35;3.10;;;;;;;5.73;100.00;100339.22;5114258;27;20047;-92
2022/01/31 02:33:33;;;;;;;12.70;3.53;;;;;;;5.65;100.00;100318.63;5112529;28;20028;-90
2022/01/31 02:36:03;;;;;;;13.55;2.95;;;;;;;5.37;100.00;100372.09;5116025;27;20051;-90
2022/01/31 02:38:30;;;;;;;20.73;3.55;;;;;;;5.49;100.00;100338.06;5116130;27;20039;-91
2022/01/31 02:40:57;;;;;;;17.65;3.15;;;;;;;5.61;100.00;100344.69;5114958;27;20473;-90
2022/01/31 02:43:30;;;;;;;22.20;4.10;;;;;;;5.62;100.00;100339.47;5122663;27;20054;-90
2022/01/31 02:45:58;;;;;;;;;;;;;;;5.65;100.00;100342.00;5115376;27;20472;-90
2022/01/31 02:48:28;;;;;;;21.30;5.70;;;;;;;5.46;100.00;100325.16;5112463;28;19920;-90
2022/01/31 02:50:56;;;;;;;15.80;3.97;;;;;;;5.27;100.00;100340.28;5114124;27;20047;-89
2022/01/31 02:53:26;;;;;;;17.60;4.97;;;;;;;5.47;100.00;100358.00;5132604;27;20043;-90
2022/01/31 02:55:55;;;;;;;24.17;6.40;;;;;;;5.42;100.00;100352.94;5133155;27;20137;-89
2022/01/31 02:58:23;;;;;;;26.13;3.85;;;;;;;5.60;100.00;100368.97;5114532;27;20058;-89
2022/01/31 03:00:52;;;;;;;17.38;3.92;;;;;;;5.65;100.00;100372.31;5113848;27;20043;-89
2022/01/31 03:03:19;;;;;;;24.25;4.57;;;;;;;5.22;100.00;100422.56;5115202;27;20044;-91
2022/01/31 03:05:47;;;;;;;19.08;4.40;;;;;;;5.31;100.00;100440.56;5115517;28;20396;-90
2022/01/31 03:08:14;;;;;;;27.50;4.43;;;;;;;5.42;100.00;100419.56;5134138;27;20043;-89
2022/01/31 03:10:41;;;;;;;13.38;3.92;;;;;;;5.43;100.00;100457.63;5114481;27;20057;-90
2022/01/31 03:13:07;;;;;;;27.30;5.18;;;;;;;5.33;100.00;100450.03;5112641;28;20118;-90
2022/01/31 03:15:35;;;;;;;24.10;4.35;;;;;;;5.23;100.00;100447.66;5111450;28;20047;-89
2022/01/31 03:18:03;;;;;;;21.35;4.93;;;;;;;5.20;100.00;100434.75;5112044;28;20057;-90
2022/01/31 03:20:30;;;;;;;23.95;5.68;;;;;;;5.69;100.00;100488.25;5121466;28;20096;-90
2022/01/31 03:22:58;;;;;;;25.27;4.03;;;;;;;5.52;100.00;100498.97;5133454;28;20536;-90
2022/01/31 03:25:25;;;;;;;18.30;4.85;;;;;;;5.25;100.00;100532.41;5108747;28;20473;-89
2022/01/31 03:27:52;;;;;;;19.65;4.60;;;;;;;5.27;100.00;100535.81;5097266;27;20047;-89
2022/01/31 03:30:21;;;;;;;21.02;4.32;;;;;;;5.56;100.00;100550.00;5128339;28;20112;-88
2022/01/31 03:32:48;;;;;;;22.45;4.40;;;;;;;5.69;100.00;100532.41;5110880;28;20039;-89
2022/01/31 03:35:16;;;;;;;22.25;4.43;;;;;;;5.54;100.00;100530.97;5115056;28;20054;-89
2022/01/31 03:37:43;;;;;;;19.73;4.65;;;;;;;5.32;100.00;100583.31;5115732;28;20048;-88
2022/01/31 03:40:11;;;;;;;21.98;3.75;;;;;;;5.42;100.00;100567.56;5134947;27;20058;-89
2022/01/31 03:42:39;;;;;;;26.15;4.43;;;;;;;5.11;100.00;100584.56;5118217;27;20122;-88
2022/01/31 03:45:09;;;;;;;17.58;3.90;;;;;;;5.16;100.00;100599.22;5115298;28;20069;-89
2022/01/31 03:47:43;;;;;;;25.20;4.43;;;;;;;5.70;100.00;100625.03;5123633;27;20043;-88
2022/01/31 03:50:15;;;;;;;27.33;4.35;;;;;;;5.43;100.00;100632.44;5137742;27;20059;-89
2022/01/31 03:52:42;;;;;;;19.05;4.78;;;;;;;5.67;100.00;100628.56;5135746;27;20046;-89
2022/01/31 03:55:13;;;;;;;14.15;3.63;;;;;;;5.61;100.00;100652.06;5136329;27;20047;-89
2022/01/31 03:57:41;;;;;;;16.00;4.20;;;;;;;5.72;100.00;100657.06;5119353;27;20046;-89
2022/01/31 04:00:10;;;;;;;23.10;6.63;;;;;;;5.31;100.00;100669.91;5119336;27;20053;-89
2022/01/31 04:02:37;;;;;;;22.17;3.83;;;;;;;5.59;100.00;100674.59;5118368;27;20057;-89
2022/01/31 04:05:06;;;;;;;22.00;4.22;;;;;;;5.46;100.00;100694.72;5119046;27;20043;-89
2022/01/31 04:07:33;;;;;;;18.45;4.47;;;;;;;5.40;100.00;100720.81;5118922;27;20043;-89
2022/01/31 04:09:59;;;;;;;15.93;4.43;;;;;;;5.05;100.00;100685.88;5118285;27;20049;-89
2022/01/31 04:12:26;;;;;;;30.50;4.90;;;;;;;4.96;100.00;100719.75;5117883;27;20047;-89
2022/01/31 04:14:53;;;;;;;22.80;4.20;;;;;;;5.04;100.00;100753.38;5136678;27;20051;-90
2022/01/31 04:17:21;;;;;;;17.77;3.45;;;;;;;5.22;100.00;100716.75;5119188;27;20480;-89
2022/01/31 04:19:48;;;;;;;16.10;4.30;;;;;;;4.82;100.00;100752.84;5137007;27;20054;-90
2022/01/31 04:22:18;;;;;;;14.52;4.28;;;;;;;5.31;100.00;100741.72;5117277;27;20055;-89
2022/01/31 04:24:48;;;;;;;15.35;3.40;;;;;;;5.33;100.00;100735.63;5136745;27;20043;-89
2022/01/31 04:27:18;;;;;;;21.90;4.47;;;;;;;5.45;100.00;100754.47;5118952;27;20468;-89
2022/01/31 04:29:47;;;;;;;18.55;4.32;;;;;;;4.87;100.00;100775.25;5118681;27;20095;-90
2022/01/31 04:32:14;;;;;;;23.60;4.03;;;;;;;5.21;100.00;100798.13;5101749;28;20046;-90
2022/01/31 04:34:41;;;;;;;16.95;2.88;;;;;;;5.01;100.00;100788.03;5097954;28;20043;-89
2022/01/31 04:37:10;;;;;;;30.40;5.00;;;;;;;5.20;100.00;100808.53;5130516;27;20150;-90
2022/01/31 04:39:37;;;;;;;15.30;2.97;;;;;;;4.67;100.00;100808.34;5118470;27;20043;-90
2022/01/31 04:42:05;;;;;;;28.50;5.63;;;;;;;4.89;100.00;100763.09;5116925;27;20053;-90
2022/01/31 04:44:32;;;;;;;23.15;3.90;;;;;;;4.92;100.00;100801.09;5118295;27;20522;-90
2022/01/31 04:46:59;;;;;;;22.60;4.57;;;;;;;4.48;100.00;100802.50;5118258;27;20452;-90
2022/01/31 04:49:26;;;;;;;20.10;5.00;;;;;;;5.36;100.00;100830.78;5108084;28;20042;-90
2022/01/31 04:51:53;;;;;;;20.95;3.83;;;;;;;4.84;100.00;100809.00;5128282;27;20043;-90
2022/01/31 04:54:19;;;;;;;23.95;4.50;;;;;;;5.13;100.00;100836.28;5113430;28;20052;-89
2022/01/31 04:56:47;;;;;;;16.85;4.03;;;;;;;5.13;100.00;100850.16;5133286;27;20134;-89
2022/01/31 04:59:13;;;;;;;21.80;3.97;;;;;;;5.12;100.00;100871.78;5117911;27;20050;-90
2022/01/31 05:01:43;;;;;;;19.58;4.32;;;;;;;4.85;100.00;100885.09;5124226;27;20051;-90
2022/01/31 05:04:10;;;;;;;23.48;3.72;;;;;;;4.74;100.00;100880.88;5104789;27;20053;-90
2022/01/31 05:06:39;;;;;;;14.40;3.47;;;;;;;4.84;100.00;100891.16;5117701;27;20051;-89
2022/01/31 05:09:07;;;;;;;18.90;4.20;;;;;;;4.63;100.00;100869.78;5117891;27;20046;-88
2022/01/31 05:11:34;;;;;;;16.65;5.10;;;;;;;4.75;100.00;100897.31;5116704;27;20051;-88
2022/01/31 05:14:01;;;;;;;21.75;3.92;;;;;;;4.83;100.00;100897.22;5113724;28;20400;-89
2022/01/31 05:16:28;;;;;;;23.85;4.10;;;;;;;4.38;100.00;100885.56;5115429;28;20075;-89
2022/01/31 05:19:01;;;;;;;18.55;4.13;;;;;;;4.29;100.00;100896.03;5128431;27;20556;-89
2022/01/31 05:21:29;;;;;;;16.13;4.22;;;;;;;4.57;100.00;100916.53;5112369;28;20048;-88
2022/01/31 05:23:56;;;;;;;19.38;4.07;;;;;;;4.73;100.00;100915.50;5097187;28;20044;-89
2022/01/31 05:26:24;;;;;;;18.35;3.67;;;;;;;4.65;100.00;100909.50;5096487;28;20134;-89
2022/01/31 05:28:51;;;;;;;12.63;3.45;;;;;;;4.75;100.00;100928.44;5111330;27;20051;-90
2022/01/31 05:31:18;;;;;;;21.45;6.32;;;;;;;5.20;100.00;100933.13;5117086;27;20435;-89
2022/01/31 05:33:45;;;;;;;8.40;2.40;;;;;;;4.38;100.00;100946.94;5117232;27;20482;-89
2022/01/31 05:36:12;;;;;;;15.95;3.05;;;;;;;4.51;100.00;100945.94;5113742;27;20412;-88
2022/01/31 05:38:40;;;;;;;12.77;2.42;;;;;;;4.69;100.00;100918.13;5114969;28;20051;-89
2022/01/31 05:41:11;;;;;;;22.35;3.33;;;;;;;4.75;100.00;100942.25;5102818;27;20047;-90
2022/01/31 05:43:38;;;;;;;15.35;3.03;;;;;;;4.32;100.00;100918.47;5135189;27;20043;-90
2022/01/31 05:46:05;;;;;;;13.15;2.83;;;;;;;4.35;100.00;100940.03;5134126;27;20153;-88
2022/01/31 05:48:33;;;;;;;14.02;3.15;;;;;;;4.62;100.00;100935.50;5140796;27;20642;-90
2022/01/31 05:51:07;;;;;;;15.52;2.80;;;;;;;4.45;100.00;100938.25;5130629;27;20053;-89
2022/01/31 05:53:34;;;;;;;12.07;2.78;;;;;;;4.48;100.00;100953.78;5117003;27;20466;-89
2022/01/31 05:56:02;;;;;;;18.92;3.92;;;;;;;4.44;100.00;100957.25;5107608;28;20122;-90
2022/01/31 05:58:28;;;;;;;16.35;4.93;;;;;;;4.45;100.00;100977.13;5095675;28;20052;-90
2022/01/31 06:00:55;;;;;;;14.55;2.80;;;;;;;4.49;100.00;100963.25;5100590;27;20039;-89
2022/01/31 06:03:22;;;;;;;11.13;2.85;;;;;;;4.07;100.00;100961.88;5116531;27;20043;-90
2022/01/31 06:05:49;;;;;;;15.32;3.17;;;;;;;4.36;100.00;100927.97;5116719;27;20047;-88
2022/01/31 06:08:16;;;;;;;14.20;2.78;;;;;;;4.33;100.00;100952.16;5116656;27;20051;-87
2022/01/31 06:10:45;;;;;;;18.05;3.30;;;;;;;4.48;100.00;100943.41;5112489;27;20733;-86
2022/01/31 06:13:12;;;;;;;17.58;3.70;;;;;;;4.14;100.00;100964.44;5095076;28;20054;-85
2022/01/31 06:15:39;;;;;;;13.35;3.08;;;;;;;4.11;100.00;100977.41;5101003;27;20092;-86
2022/01/31 06:18:06;;;;;;;19.05;3.20;;;;;;;4.37;100.00;100997.06;5134659;27;20706;-86
2022/01/31 06:20:33;;;;;;;20.45;4.40;;;;;;;4.37;100.00;101003.13;5131103;27;20050;-86
2022/01/31 06:23:00;;;;;;;20.02;5.15;;;;;;;4.09;100.00;101011.94;5097130;28;20039;-86
2022/01/31 06:25:27;;;;;;;9.25;2.60;;;;;;;4.15;100.00;101035.25;5112841;28;20530;-86
2022/01/31 06:27:54;;;;;;;15.95;3.20;;;;;;;4.00;100.00;101031.00;5113191;28;20229;-87
2022/01/31 06:30:26;;;;;;;15.13;2.95;;;;;;;3.98;100.00;101014.59;5114047;27;20039;-86
2022/01/31 06:32:54;;;;;;;14.02;3.30;;;;;;;3.84;100.00;101000.88;5114700;27;20046;-87
2022/01/31 06:35:21;;;;;;;16.17;2.90;;;;;;;4.19;100.00;101014.47;5109371;27;20058;-87
2022/01/31 06:37:48;;;;;;;14.80;3.35;;;;;;;3.79;100.00;100993.16;5119036;27;20062;-87
2022/01/31 06:40:15;;;;;;;16.60;3.35;;;;;;;3.98;100.00;101032.75;5114163;27;20049;-87
2022/01/31 06:42:42;;;;;;;19.80;2.97;;;;;;;3.94;100.00;101031.06;5113575;27;20051;-92
2022/01/31 06:45:09;;;;;;;14.20;2.78;;;;;;;3.78;100.00;101027.69;5129551;27;20057;-89
2022/01/31 06:47:36;;;;;;;17.23;4.30;;;;;;;3.86;100.00;101041.47;5110389;27;20044;-91
2022/01/31 06:50:06;;;;;;;14.48;3.25;;;;;;;4.21;100.00;101045.56;5118549;27;20053;-92
2022/01/31 06:52:36;;;;;;;15.90;4.75;;;;;;;4.19;100.00;101057.69;5106849;27;20047;-90
2022/01/31 06:55:05;;;;;;;13.20;3.42;;;;;;;4.24;100.00;101058.50;5114453;27;20092;-87
2022/01/31 06:57:33;;;;;;;24.15;3.50;;;;;;;4.08;100.00;101051.72;5118552;27;20089;-92
2022/01/31 07:00:04;;;;;;;10.23;2.65;;;;;;;4.34;100.00;101060.19;5107417;27;20051;-92
2022/01/31 07:02:31;;;;;;;16.25;3.25;;;;;;;3.93;100.00;101071.66;5124903;27;20126;-91
2022/01/31 07:05:00;;;;;;;18.67;3.85;;;;;;;4.29;100.00;101074.91;5104568;28;20063;-91
2022/01/31 07:07:30;;;;;;;25.40;6.10;;;;;;;3.79;100.00;101019.91;5108662;27;20130;-90
2022/01/31 07:10:00;;;;;;;19.55;2.90;;;;;;;3.91;100.00;101064.75;5113654;28;20080;-89
2022/01/31 07:12:33;;;;;;;15.48;3.28;;;;;;;4.23;100.00;101077.50;5125253;27;20040;-89
2022/01/31 07:15:01;;;;;;;22.02;5.78;;;;;;;3.91;100.00;101090.66;5106522;28;20051;-89
2022/01/31 07:17:28;;;;;;;22.42;3.63;;;;;;;3.77;100.00;101108.81;5126392;28;20146;-90
2022/01/31 07:19:55;;;;;;;15.02;3.03;;;;;;;4.24;100.00;101127.66;5129570;27;20043;-88
2022/01/31 07:22:28;;;;;;;19.80;5.40;;;;;;;4.02;100.00;101103.53;5122696;27;20050;-88
2022/01/31 07:25:07;;;;;;;12.25;3.67;;;;;;;4.50;100.00;101120.56;5104420;28;20107;-87
2022/01/31 07:27:35;;;;;;;16.40;4.45;;;;;;;4.10;100.00;101123.38;5113020;28;20039;-89
2022/01/31 07:30:04;;;;;;;28.52;4.00;;;;;;;4.26;100.00;101137.13;5121245;28;20047;-89
2022/01/31 07:32:32;;;;;;;15.50;3.33;;;;;;;4.16;100.00;101136.31;5113297;28;20492;-88
2022/01/31 07:35:00;;;;;;;21.33;4.47;;;;;;;3.63;100.00;101089.88;5111317;28;20047;-88
2022/01/31 07:37:27;;;;;;;16.13;3.42;;;;;;;4.13;100.00;101158.81;5102936;28;20058;-89
2022/01/31 07:39:54;;;;;;;12.13;3.05;;;;;;;4.10;100.00;101157.06;5105704;28;20443;-89
2022/01/31 07:42:21;;;;;;;14.32;3.17;;;;;;;4.32;100.00;101170.81;5110836;28;20046;-89
2022/01/31 07:44:49;;;;;;;22.90;3.38;;;;;;;4.13;100.00;101177.78;5120820;28;20139;-88
2022/01/31 07:47:15;;;;;;;17.58;3.60;;;;;;;4.54;100.00;101189.69;5109211;28;20473;-89
2022/01/31 07:49:42;;;;;;;17.38;3.92;;;;;;;4.24;100.00;101177.75;5123524;28;20071;-86
2022/01/31 07:52:09;;;;;;;10.85;2.50;;;;;;;3.97;100.00;101179.56;5122841;28;20051;-88
2022/01/31 07:54:36;;;;;;;24.58;4.10;;;;;;;4.31;100.00;101181.19;5106232;28;20039;-90
2022/01/31 07:57:03;;;;;;;15.32;3.78;;;;;;;4.30;100.00;101180.31;5106094;28;20564;-89
2022/01/31 07:59:51;;;;;;;16.48;2.85;;;;;;;4.29;100.00;101183.78;5120112;28;20054;-88
2022/01/31 08:02:18;;;;;;;15.45;2.38;;;;;;;4.44;100.00;101161.22;5117085;28;20057;-89
2022/01/31 08:04:45;;;;;;;14.40;4.05;;;;;;;4.05;100.00;101168.31;5133462;28;20050;-89
2022/01/31 08:07:12;;;;;;;16.25;4.82;;;;;;;4.55;100.00;101181.06;5111699;28;20101;-88
2022/01/31 08:09:39;;;;;;;10.93;2.70;;;;;;;4.17;100.00;101183.81;5112526;28;20051;-87
2022/01/31 08:12:07;;;;;;;17.75;2.85;;;;;;;4.38;100.00;101198.44;5114057;28;20086;-87
2022/01/31 08:14:34;;;;;;;12.75;3.00;;;;;;;4.22;100.00;101199.38;5115134;28;20046;-88
2022/01/31 08:17:01;;;;;;;17.08;3.20;;;;;;;4.14;100.00;101209.75;5133222;28;20484;-88
2022/01/31 08:19:28;;;;;;;13.43;2.80;;;;;;;4.13;100.00;101226.19;5115497;28;20061;-89
2022/01/31 08:22:07;;;;;;;13.18;3.63;;;;;;;4.37;100.00;101226.09;5112672;28;20048;-89
2022/01/31 08:24:34;;;;;;;18.08;2.65;;;;;;;4.01;100.00;101252.13;5099673;28;20051;-87
2022/01/31 08:27:01;;;;;;;13.75;3.60;;;;;;;4.30;100.00;101252.91;5113885;27;20045;-88
2022/01/31 08:29:32;;;;;;;17.15;3.10;;;;;;;4.25;100.00;101220.97;5124925;27;20256;-88
2022/01/31 08:32:08;;;;;;;22.33;4.68;;;;;;;4.34;100.00;101256.34;5117531;27;20386;-89
2022/01/31 08:37:20;;;;;;;14.07;4.82;;;;;;;4.05;100.00;101262.47;5139971;27;20047;-85
2022/01/31 08:39:47;;;;;;;16.25;2.88;;;;;;;4.25;100.00;101226.16;5114084;27;20039;-85
2022/01/31 08:42:14;;;;;;;13.90;3.08;;;;;;;4.67;100.00;101255.31;5108807;27;20039;-85
2022/01/31 08:44:41;;;;;;;18.20;5.43;;;;;;;4.13;100.00;101268.50;5107764;27;20044;-85
2022/01/31 08:47:08;;;;;;;17.02;3.03;;;;;;;4.41;100.00;101271.03;5104183;27;20221;-86
2022/01/31 08:49:36;;;;;;;14.85;3.20;;;;;;;4.01;100.00;101240.03;5114067;27;20055;-86
2022/01/31 08:52:04;;;;;;;14.75;3.03;;;;;;;4.44;100.00;101255.44;5107253;27;20048;-87
2022/01/31 08:54:31;;;;;;;14.55;2.83;;;;;;;4.71;100.00;101258.78;5125678;27;20040;-87
2022/01/31 08:56:58;;;;;;;15.75;2.90;;;;;;;4.28;100.00;101233.88;5105943;27;20130;-86
2022/01/31 08:59:26;;;;;;;10.93;2.65;;;;;;;4.29;100.00;101212.28;5130915;27;20044;-86
2022/01/31 09:02:12;;;;;;;17.15;3.53;;;;;;;4.53;100.00;101251.94;5122644;27;20078;-87
2022/01/31 09:04:48;;;;;;;14.68;3.75;;;;;;;4.38;100.00;101258.06;5115713;27;20050;-86
2022/01/31 09:07:17;;;;;;;12.75;3.03;;;;;;;4.63;100.00;101261.41;5133308;27;20059;-86
2022/01/31 09:09:47;;;;;;;15.73;3.05;;;;;;;4.27;100.00;101202.81;5114933;27;20464;-86
2022/01/31 09:12:16;;;;;;;16.33;2.75;;;;;;;4.49;100.00;101229.50;5103648;27;20039;-87
2022/01/31 09:14:44;;;;;;;13.45;2.83;;;;;;;4.34;100.00;101235.63;5125337;27;20043;-87
2022/01/31 09:17:11;;;;;;;7.95;2.47;;;;;;;4.69;100.00;101229.38;5113789;27;20494;-87
2022/01/31 09:19:38;;;;;;;11.98;2.75;;;;;;;4.65;100.00;101219.91;5109817;27;20389;-91
2022/01/31 09:22:05;;;;;;;14.32;2.58;;;;;;;4.57;100.00;101238.97;5125498;27;20052;-90
2022/01/31 09:24:37;;;;;;;21.23;4.25;;;;;;;4.16;100.00;101208.88;5117049;27;20047;-90
2022/01/31 09:27:05;;;;;;;8.93;2.78;;;;;;;4.63;100.00;101195.72;5105444;28;20497;-89
2022/01/31 09:29:33;;;;;;;9.98;2.55;;;;;;;4.82;100.00;101236.25;5113009;27;20039;-89
2022/01/31 09:32:03;;;;;;;10.00;3.25;;;;;;;5.06;100.00;101232.63;5110529;27;20049;-89
2022/01/31 09:34:33;;;;;;;8.60;1.75;;;;;;;4.31;100.00;101227.84;5124270;27;20050;-86
2022/01/31 09:37:01;;;;;;;9.10;1.85;;;;;;;4.27;100.00;101233.91;5109733;27;20058;-88
2022/01/31 09:39:28;;;;;;;11.70;2.20;;;;;;;4.66;100.00;101238.06;5131263;27;20047;-88
2022/01/31 09:42:02;;;;;;;18.25;3.15;;;;;;;4.47;100.00;101265.81;5125451;27;20075;-89
2022/01/31 09:49:33;;;;;;;13.43;2.67;;;;;;;5.02;100.00;101287.16;5120153;27;20047;-89
2022/01/31 09:52:00;;;;;;;22.80;2.53;;;;;;;4.86;100.00;101328.75;5106016;27;20507;-88
2022/01/31 09:54:28;;;;;;;8.75;1.90;;;;;;;5.01;100.00;101339.94;5121767;27;20039;-89
2022/01/31 09:56:57;;;;;;;8.98;2.17;;;;;;;5.30;100.00;101360.56;5110051;27;20051;-87
2022/01/31 09:59:24;;;;;;;13.35;2.72;;;;;;;5.16;100.00;101352.84;5125507;27;20070;-87
2022/01/31 10:01:55;;;;;;;11.05;2.35;;;;;;;5.11;100.00;101352.00;5124663;27;20510;-88
2022/01/31 10:04:30;;;;;;;12.63;2.75;;;;;;;5.11;100.00;101336.44;5125499;27;20122;-89
2022/01/31 10:06:58;;;;;;;13.27;3.00;;;;;;;5.29;100.00;101346.72;5116900;27;20130;-88
2022/01/31 10:09:30;;;;;;;13.10;2.95;;;;;;;5.78;100.00;101365.44;5117943;27;20408;-89
2022/01/31 10:12:07;;;;;;;9.73;2.13;;;;;;;5.06;100.00;101380.56;5112073;27;20555;-89
2022/01/31 10:17:35;;;;;;;15.38;2.70;;;;;;;5.41;100.00;101357.88;5113940;27;20412;-89
2022/01/31 10:20:07;;;;;;;16.88;2.80;;;;;;;5.76;100.00;101394.03;5116817;27;20134;-89
2022/01/31 10:22:38;;;;;;;15.00;2.90;;;;;;;5.79;100.00;101393.13;5115104;27;20405;-89
2022/01/31 10:25:11;;;;;;;12.35;3.25;;;;;;;5.80;100.00;101385.31;5120277;27;20078;-88
2022/01/31 10:27:58;;;;;;;12.30;2.45;;;;;;;5.82;100.00;101380.97;5126520;27;20050;-89
2022/01/31 10:30:28;;;;;;;11.40;2.50;;;;;;;5.32;100.00;101359.66;5105197;28;20057;-88
2022/01/31 10:32:57;;;;;;;14.55;2.80;;;;;;;5.57;100.00;101392.44;5104219;28;20127;-89
2022/01/31 10:35:28;;;;;;;19.55;3.38;;;;;;;5.80;100.00;101415.66;5108453;27;20063;-88
2022/01/31 10:38:03;;;;;;;9.02;2.17;;;;;;;5.66;100.00;101380.22;5112279;27;20049;-89
2022/01/31 10:56:53;;;;;;;11.73;2.60;;;;;;;6.05;100.00;101386.00;5123998;27;20507;-89
2022/01/31 10:59:37;;;;;;;10.77;2.13;;;;;;;6.46;100.00;101470.66;5116000;27;20054;-89
2022/01/31 11:02:08;;;;;;;12.75;2.50;;;;;;;6.04;100.00;101444.09;5113118;27;20047;-88
2022/01/31 11:04:41;;;;;;;10.80;1.80;;;;;;;6.73;100.00;101452.16;5105998;28;20043;-88
2022/01/31 11:07:10;;;;;;;;;;;;;;;7.04;100.00;101460.50;5102778;28;20048;-87
2022/01/31 11:09:38;;;;;;;14.38;3.00;;;;;;;6.55;100.00;101433.28;5106327;28;20436;-89
2022/01/31 11:12:06;;;;;;;11.55;2.50;;;;;;;6.75;100.00;101453.03;5110937;27;20058;-89
2022/01/31 11:14:36;;;;;;;14.05;2.58;;;;;;;6.98;100.00;101461.44;5104215;27;20046;-89
2022/01/31 11:17:10;;;;;;;13.80;2.45;;;;;;;7.07;100.00;101457.03;5104785;28;20047;-88
2022/01/31 11:19:39;;;;;;;12.85;2.45;;;;;;;6.88;100.00;101446.81;5128073;27;20051;-89
2022/01/31 11:22:09;;;;;;;14.82;2.72;;;;;;;6.73;100.00;101455.66;5101857;28;20044;-88
2022/01/31 11:25:00;;;;;;;11.70;2.67;;;;;;;6.70;100.00;101437.44;5109903;28;20047;-89
2022/01/31 11:27:29;;;;;;;9.23;2.22;;;;;;;7.31;100.00;101448.03;5111239;28;20058;-89
2022/01/31 11:29:57;;;;;;;8.50;2.10;;;;;;;7.49;100.00;101475.59;5103331;28;20044;-89
2022/01/31 11:32:26;;;;;;;9.07;2.35;;;;;;;7.32;100.00;101432.38;5125817;28;20043;-89
2022/01/31 11:34:54;;;;;;;13.40;2.30;;;;;;;6.87;100.00;101446.81;5111383;28;20503;-89
2022/01/31 11:37:22;;;;;;;12.30;2.55;;;;;;;7.70;100.00;101457.09;5117126;27;20047;-89
2022/01/31 11:40:00;;;;;;;7.03;1.65;;;;;;;6.72;100.00;101459.13;5106061;28;20051;-90
2022/01/31 11:42:28;;;;;;;13.55;2.58;;;;;;;7.03;100.00;101443.19;5120531;28;20090;-89
2022/01/31 11:45:33;;;;;;;8.35;2.42;;;;;;;7.50;100.00;101465.16;5109148;28;20053;-89
2022/01/31 11:48:05;;;;;;;11.57;2.80;;;;;;;6.74;100.00;101465.16;5125626;28;20053;-89
2022/01/31 11:50:45;;;;;;;11.50;2.43;;;;;;;7.25;100.00;101467.22;5121616;28;20048;-89
2022/01/31 11:53:13;;;;;;;18.23;3.67;;;;;;;6.89;100.00;101458.06;5109583;28;20292;-89
2022/01/31 11:55:41;;;;;;;11.45;2.72;;;;;;;7.13;100.00;101485.59;5122438;27;20400;-89